createdAt,value
2019-05-09T00:02:14.255Z,13.78
2019-05-09T00:04:44.067Z,13.18
2019-05-09T00:07:13.987Z,13.23
2019-05-09T00:09:44.078Z,13.64
2019-05-09T00:12:14.162Z,13.78
2019-05-09T00:14:43.453Z,13.57
2019-05-09T00:17:14.108Z,13.38
2019-05-09T00:19:43.881Z,13.09
2019-05-09T00:22:13.715Z,13.06
2019-05-09T00:24:44.532Z,13.12
2019-05-09T00:27:14.144Z,13.15
2019-05-09T00:29:44.532Z,13.31
2019-05-09T00:32:17.630Z,13.51
2019-05-09T00:34:53.530Z,13.73
2019-05-09T00:37:23.878Z,13.50
2019-05-09T00:39:53.344Z,13.32
2019-05-09T00:42:23.970Z,13.50
2019-05-09T00:44:59.902Z,13.63
2019-05-09T00:47:29.298Z,13.51
2019-05-09T00:49:57.880Z,13.48
2019-05-09T00:52:26.437Z,13.76
2019-05-09T00:54:54.963Z,13.66
2019-05-09T00:57:35.028Z,13.33
2019-05-09T01:00:08.207Z,13.65
2019-05-09T01:02:36.715Z,13.47
2019-05-09T01:05:05.537Z,13.76
2019-05-09T01:07:34.058Z,13.60
2019-05-09T01:10:04.298Z,13.49
2019-05-09T01:12:34.149Z,13.42
2019-05-09T01:15:04.528Z,13.54
2019-05-09T01:17:33.616Z,13.55
2019-05-09T01:20:03.430Z,13.80
2019-05-09T01:22:33.162Z,14.09
2019-05-09T01:25:04.011Z,13.50
2019-05-09T01:27:33.952Z,13.69
2019-05-09T01:30:04.554Z,14.23
2019-05-09T01:32:45.764Z,14.01
2019-05-09T01:35:13.518Z,14.17
2019-05-09T01:37:43.406Z,13.60
2019-05-09T01:40:13.266Z,13.79
2019-05-09T01:42:43.255Z,13.93
2019-05-09T01:45:14.006Z,14.25
2019-05-09T01:47:43.074Z,13.80
2019-05-09T01:50:14.032Z,13.46
2019-05-09T01:52:43.857Z,14.09
2019-05-09T01:55:14.180Z,14.20
2019-05-09T01:57:45.699Z,13.88
2019-05-09T02:00:13.386Z,13.95
2019-05-09T02:02:43.314Z,14.16
2019-05-09T02:05:13.582Z,13.96
2019-05-09T02:07:43.831Z,13.50
2019-05-09T02:10:13.929Z,13.83
2019-05-09T02:12:43.114Z,13.46
2019-05-09T02:15:13.437Z,13.76
2019-05-09T02:17:57.848Z,13.76
2019-05-09T02:20:16.225Z,13.43
2019-05-09T02:22:44.703Z,13.48
2019-05-09T02:25:13.949Z,13.39
2019-05-09T02:27:43.699Z,13.48
2019-05-09T02:30:15.323Z,13.57
2019-05-09T02:32:44.964Z,13.62
2019-05-09T02:35:15.580Z,12.95
2019-05-09T02:37:44.076Z,13.19
2019-05-09T02:40:13.909Z,13.01
2019-05-09T02:42:42.563Z,12.88
2019-05-09T02:45:11.497Z,13.52
2019-05-09T02:47:40.109Z,13.17
2019-05-09T02:50:09.748Z,13.70
2019-05-09T02:52:39.679Z,12.76
2019-05-09T02:55:10.234Z,13.09
2019-05-09T02:57:39.210Z,12.92
2019-05-09T03:00:19.650Z,13.13
2019-05-09T03:02:50.419Z,13.40
2019-05-09T03:05:19.724Z,13.44
2019-05-09T03:07:51.540Z,13.73
2019-05-09T03:10:21.361Z,13.91
2019-05-09T03:12:50.691Z,13.68
2019-05-09T03:15:20.281Z,13.86
2019-05-09T03:17:49.853Z,13.61
2019-05-09T03:20:21.181Z,13.96
2019-05-09T03:22:49.677Z,14.05
2019-05-09T03:25:19.133Z,13.48
2019-05-09T03:27:49.483Z,13.55
2019-05-09T03:30:20.996Z,13.28
2019-05-09T03:32:49.653Z,13.23
2019-05-09T03:35:18.153Z,13.03
2019-05-09T03:37:48.391Z,12.65
2019-05-09T03:40:18.052Z,12.83
2019-05-09T03:42:48.648Z,12.60
2019-05-09T03:45:18.507Z,12.88
2019-05-09T03:47:48.705Z,12.75
2019-05-09T03:50:17.904Z,12.93
2019-05-09T03:52:47.805Z,12.40
2019-05-09T03:55:18.136Z,12.68
2019-05-09T03:57:51.174Z,12.33
2019-05-09T04:00:19.729Z,12.14
2019-05-09T04:02:48.264Z,12.22
2019-05-09T04:05:18.088Z,12.55
2019-05-09T04:07:47.948Z,12.64
2019-05-09T04:10:18.041Z,12.46
2019-05-09T04:12:55.816Z,12.22
2019-05-09T04:15:19.040Z,12.31
2019-05-09T04:17:47.612Z,12.38
2019-05-09T04:20:17.630Z,12.62
2019-05-09T04:22:48.801Z,12.61
2019-05-09T04:25:18.270Z,12.73
2019-05-09T04:27:48.393Z,12.86
2019-05-09T04:30:18.231Z,12.83
2019-05-09T04:32:48.151Z,12.33
2019-05-09T04:35:17.566Z,12.53
2019-05-09T04:37:48.296Z,12.45
2019-05-09T04:40:17.811Z,12.71
2019-05-09T04:45:40.252Z,12.45
2019-05-09T04:48:07.743Z,12.21
2019-05-09T04:50:37.690Z,12.18
2019-05-09T04:53:07.992Z,12.16
2019-05-09T04:55:38.312Z,12.21
2019-05-09T04:58:09.098Z,12.26
2019-05-09T05:00:54.605Z,12.16
2019-05-09T05:03:23.131Z,11.67
2019-05-09T05:05:51.625Z,11.53
2019-05-09T05:08:20.114Z,11.72
2019-05-09T05:10:48.597Z,11.89
2019-05-09T05:13:26.416Z,11.49
2019-05-09T05:15:47.575Z,11.61
2019-05-09T05:18:17.397Z,10.54
2019-05-09T05:20:48.189Z,10.06
2019-05-09T05:23:18.350Z,9.62
2019-05-09T05:25:47.609Z,10.16
2019-05-09T05:28:17.688Z,10.59
2019-05-09T05:30:47.696Z,10.66
2019-05-09T05:33:27.798Z,10.56
2019-05-09T05:36:00.853Z,10.25
2019-05-09T05:38:29.360Z,10.28
2019-05-09T05:40:57.956Z,10.37
2019-05-09T05:43:38.530Z,10.93
2019-05-09T05:45:58.500Z,10.62
2019-05-09T05:48:34.729Z,10.53
2019-05-09T05:51:03.256Z,10.73
2019-05-09T05:53:31.779Z,10.71
2019-05-09T05:56:00.439Z,10.86
2019-05-09T05:58:28.937Z,10.91
2019-05-09T06:00:58.954Z,11.09
2019-05-09T06:03:28.355Z,10.55
2019-05-09T06:05:58.426Z,10.32
2019-05-09T06:08:27.622Z,9.76
2019-05-09T06:10:57.632Z,10.46
2019-05-09T06:13:27.541Z,10.49
2019-05-09T06:15:58.433Z,10.40
2019-05-09T06:18:27.588Z,10.46
2019-05-09T06:20:58.247Z,10.03
2019-05-09T06:23:28.258Z,10.43
2019-05-09T06:25:58.795Z,10.49
2019-05-09T06:28:27.508Z,10.58
2019-05-09T06:30:58.479Z,10.79
2019-05-09T06:33:28.596Z,10.70
2019-05-09T06:35:58.932Z,10.04
2019-05-09T06:38:28.247Z,9.75
2019-05-09T06:40:58.166Z,9.52
2019-05-09T06:43:29.106Z,9.44
2019-05-09T06:46:05.310Z,9.86
2019-05-09T06:48:37.634Z,10.47
2019-05-09T06:51:07.330Z,10.37
2019-05-09T06:53:37.856Z,10.55
2019-05-09T06:56:07.408Z,10.73
2019-05-09T06:58:38.486Z,11.25
2019-05-09T07:01:25.306Z,11.78
2019-05-09T07:04:01.348Z,10.55
2019-05-09T07:06:31.484Z,10.42
2019-05-09T07:09:01.652Z,10.43
2019-05-09T07:11:30.140Z,10.37
2019-05-09T07:13:58.738Z,10.52
2019-05-09T07:16:27.720Z,9.49
2019-05-09T07:18:57.921Z,9.81
2019-05-09T07:21:28.669Z,9.91
2019-05-09T07:23:58.263Z,9.93
2019-05-09T07:26:28.560Z,10.18
2019-05-09T07:28:59.396Z,10.73
2019-05-09T07:31:28.919Z,10.71
2019-05-09T07:34:14.177Z,10.64
2019-05-09T07:36:42.698Z,10.48
2019-05-09T07:39:11.184Z,10.88
2019-05-09T07:41:39.681Z,10.20
2019-05-09T07:44:08.180Z,11.07
2019-05-09T07:46:38.523Z,10.30
2019-05-09T07:49:08.571Z,10.03
2019-05-09T07:51:37.448Z,10.37
2019-05-09T07:54:21.285Z,10.64
2019-05-09T07:56:37.822Z,10.77
2019-05-09T07:59:12.897Z,10.57
2019-05-09T08:01:41.447Z,11.09
2019-05-09T08:04:09.894Z,11.04
2019-05-09T08:06:38.488Z,10.86
2019-05-09T08:09:08.335Z,10.63
2019-05-09T08:11:37.774Z,10.74
2019-05-09T08:14:08.355Z,10.74
2019-05-09T08:16:37.935Z,10.44
2019-05-09T08:19:07.519Z,10.50
2019-05-09T08:21:38.273Z,10.27
2019-05-09T08:24:08.132Z,10.25
2019-05-09T08:26:39.293Z,10.81
2019-05-09T08:29:09.281Z,10.70
2019-05-09T08:31:40.089Z,10.66
2019-05-09T08:34:08.282Z,10.88
2019-05-09T08:36:38.491Z,10.87
2019-05-09T08:39:08.411Z,10.48
2019-05-09T08:41:38.501Z,10.59
2019-05-09T08:44:07.961Z,10.99
2019-05-09T08:46:37.756Z,10.93
2019-05-09T08:49:08.254Z,10.42
2019-05-09T08:51:52.024Z,10.96
2019-05-09T08:54:10.521Z,10.75
2019-05-09T08:56:39.054Z,10.44
2019-05-09T08:59:08.341Z,10.28
2019-05-09T09:01:54.321Z,10.83
2019-05-09T09:04:08.096Z,11.06
2019-05-09T09:06:38.001Z,10.71
2019-05-09T09:09:08.066Z,10.78
2019-05-09T09:11:38.516Z,11.11
2019-05-09T09:14:07.860Z,12.02
2019-05-09T09:16:37.947Z,11.51
2019-05-09T09:19:08.860Z,12.03
2019-05-09T09:21:38.823Z,11.41
2019-05-09T09:24:08.749Z,11.39
2019-05-09T09:26:38.221Z,11.13
2019-05-09T09:29:08.507Z,10.87
2019-05-09T09:31:37.857Z,10.87
2019-05-09T09:34:07.956Z,11.15
2019-05-09T09:36:38.883Z,11.55
2019-05-09T09:39:08.165Z,11.07
2019-05-09T09:41:38.561Z,11.49
2019-05-09T09:44:08.772Z,11.31
2019-05-09T09:46:37.521Z,11.27
2019-05-09T09:49:07.991Z,11.44
2019-05-09T09:51:38.202Z,11.81
2019-05-09T09:54:08.811Z,11.50
2019-05-09T09:56:38.651Z,11.63
2019-05-09T09:59:21.053Z,11.61
2019-05-09T10:01:51.193Z,11.84
2019-05-09T10:04:24.169Z,11.61
2019-05-09T10:06:52.974Z,12.13
2019-05-09T10:09:20.231Z,11.65
2019-05-09T10:11:48.820Z,11.93
2019-05-09T10:14:28.190Z,12.02
2019-05-09T10:16:59.465Z,12.50
2019-05-09T10:19:29.583Z,12.36
2019-05-09T10:21:59.817Z,12.27
2019-05-09T10:24:28.310Z,12.10
2019-05-09T10:27:08.304Z,12.17
2019-05-09T10:29:38.526Z,11.67
2019-05-09T10:32:08.991Z,11.51
2019-05-09T10:34:37.854Z,12.05
2019-05-09T10:37:07.702Z,12.10
2019-05-09T10:39:38.115Z,12.21
2019-05-09T10:42:18.870Z,12.56
2019-05-09T10:44:49.151Z,12.75
2019-05-09T10:47:27.260Z,12.65
2019-05-09T10:49:58.019Z,12.89
2019-05-09T10:52:27.781Z,12.62
2019-05-09T10:54:58.076Z,12.75
2019-05-09T10:57:30.936Z,12.92
2019-05-09T10:59:57.956Z,12.88
2019-05-09T11:02:27.970Z,13.02
2019-05-09T11:04:57.683Z,12.65
2019-05-09T11:07:28.742Z,12.25
2019-05-09T11:09:58.772Z,12.08
2019-05-09T11:12:27.608Z,12.23
2019-05-09T11:14:59.080Z,11.70
2019-05-09T11:17:28.562Z,11.43
2019-05-09T11:19:58.850Z,11.28
2019-05-09T11:22:29.305Z,11.94
2019-05-09T11:24:58.105Z,11.89
2019-05-09T11:27:29.077Z,12.49
2019-05-09T11:29:57.818Z,12.34
2019-05-09T11:32:27.795Z,12.29
2019-05-09T11:34:57.576Z,12.23
2019-05-09T11:37:26.425Z,12.73
2019-05-09T11:39:54.880Z,12.54
2019-05-09T11:42:23.390Z,12.45
2019-05-09T11:44:51.884Z,12.61
2019-05-09T11:47:32.012Z,12.81
2019-05-09T11:49:50.726Z,12.91
2019-05-09T11:52:19.307Z,13.16
2019-05-09T11:54:48.273Z,13.06
2019-05-09T11:57:19.166Z,12.72
2019-05-09T11:59:48.013Z,12.19
2019-05-09T12:02:18.096Z,12.60
2019-05-09T12:04:48.696Z,12.95
2019-05-09T12:07:17.914Z,12.89
2019-05-09T12:09:48.920Z,12.99
2019-05-09T12:12:19.328Z,13.28
2019-05-09T12:14:48.373Z,13.39
2019-05-09T12:17:19.728Z,12.90
2019-05-09T12:19:48.898Z,13.23
2019-05-09T12:22:19.038Z,13.15
2019-05-09T12:24:48.195Z,13.17
2019-05-09T12:27:18.787Z,13.32
2019-05-09T12:29:48.366Z,13.17
2019-05-09T12:32:18.614Z,13.31
2019-05-09T12:34:48.016Z,13.36
2019-05-09T12:37:18.260Z,13.42
2019-05-09T12:39:48.100Z,13.51
2019-05-09T12:42:18.454Z,12.99
2019-05-09T12:44:49.332Z,13.19
2019-05-09T12:47:19.051Z,13.37
2019-05-09T12:49:48.803Z,13.38
2019-05-09T12:52:18.673Z,13.59
2019-05-09T12:54:48.367Z,13.46
2019-05-09T12:57:19.321Z,13.57
2019-05-09T12:59:52.341Z,13.59
2019-05-09T13:02:17.863Z,13.62
2019-05-09T13:04:49.399Z,13.51
2019-05-09T13:07:18.002Z,13.53
2019-05-09T13:09:52.218Z,13.81
2019-05-09T13:12:18.100Z,13.83
2019-05-09T13:14:48.591Z,13.67
2019-05-09T13:17:18.655Z,13.61
2019-05-09T13:19:48.916Z,13.60
2019-05-09T13:22:18.525Z,13.65
2019-05-09T13:24:47.558Z,13.91
2019-05-09T13:27:18.702Z,13.71
2019-05-09T13:29:48.976Z,13.67
2019-05-09T13:32:18.066Z,13.50
2019-05-09T13:34:48.645Z,13.52
2019-05-09T13:37:18.838Z,13.72
2019-05-09T13:39:47.671Z,13.96
2019-05-09T13:42:19.200Z,13.87
2019-05-09T13:44:47.528Z,13.99
2019-05-09T13:47:17.896Z,13.93
2019-05-09T13:49:48.358Z,13.95
2019-05-09T13:52:17.974Z,13.83
2019-05-09T13:54:48.282Z,13.85
2019-05-09T13:57:18.773Z,13.84
2019-05-09T13:59:48.701Z,13.74
2019-05-09T14:02:18.729Z,13.77
2019-05-09T14:04:48.614Z,14.06
2019-05-09T14:07:19.341Z,13.74
2019-05-09T14:09:48.406Z,13.73
2019-05-09T14:12:17.626Z,13.76
2019-05-09T14:14:46.330Z,13.94
2019-05-09T14:17:15.360Z,14.06
2019-05-09T14:19:47.939Z,13.99
2019-05-09T14:22:17.914Z,14.34
2019-05-09T14:24:48.660Z,13.78
2019-05-09T14:27:18.753Z,14.16
2019-05-09T14:29:49.722Z,14.18
2019-05-09T14:32:17.659Z,14.37
2019-05-09T14:34:48.197Z,14.33
2019-05-09T14:37:18.070Z,14.29
2019-05-09T14:39:55.780Z,13.51
2019-05-09T14:42:18.908Z,13.86
2019-05-09T14:44:47.405Z,14.09
2019-05-09T14:47:17.610Z,13.78
2019-05-09T14:49:49.907Z,13.69
2019-05-09T14:52:17.876Z,13.74
2019-05-09T14:54:48.275Z,13.55
2019-05-09T14:57:17.527Z,13.35
2019-05-09T14:59:46.167Z,13.20
2019-05-09T15:02:14.719Z,13.62
2019-05-09T15:04:43.244Z,13.77
2019-05-09T15:07:11.742Z,13.89
2019-05-09T15:09:40.228Z,13.88
2019-05-09T15:12:08.715Z,14.08
2019-05-09T15:14:38.350Z,14.00
2019-05-09T15:17:08.808Z,13.46
2019-05-09T15:19:38.554Z,13.27
2019-05-09T15:22:08.245Z,13.30
2019-05-09T15:24:38.818Z,13.27
2019-05-09T15:27:07.636Z,13.24
2019-05-09T15:29:38.892Z,13.45
2019-05-09T15:32:11.692Z,13.64
2019-05-09T15:34:38.188Z,13.42
2019-05-09T15:37:08.810Z,13.36
2019-05-09T15:39:38.099Z,13.14
2019-05-09T15:42:07.398Z,13.08
2019-05-09T15:44:36.139Z,13.19
2019-05-09T15:47:12.666Z,13.63
2019-05-09T15:49:41.200Z,13.32
2019-05-09T15:52:09.694Z,12.95
2019-05-09T15:54:38.762Z,13.18
2019-05-09T15:57:08.649Z,13.43
2019-05-09T15:59:38.956Z,13.07
2019-05-09T16:02:09.076Z,13.29
2019-05-09T16:04:40.082Z,13.52
2019-05-09T16:07:08.210Z,13.65
2019-05-09T16:09:37.855Z,13.64
2019-05-09T16:12:07.747Z,13.67
2019-05-09T16:14:38.088Z,13.16
2019-05-09T16:17:07.850Z,13.02
2019-05-09T16:19:37.807Z,13.16
2019-05-09T16:22:07.983Z,13.15
2019-05-09T16:24:38.059Z,13.22
2019-05-09T16:27:08.443Z,13.33
2019-05-09T16:29:38.344Z,13.30
2019-05-09T16:32:08.795Z,13.26
2019-05-09T16:34:38.661Z,13.22
2019-05-09T16:37:07.693Z,13.32
2019-05-09T16:39:37.844Z,13.35
2019-05-09T16:42:06.652Z,13.06
2019-05-09T16:44:37.531Z,13.18
2019-05-09T16:47:05.426Z,13.16
2019-05-09T16:49:33.993Z,13.25
2019-05-09T16:52:04.096Z,13.28
2019-05-09T16:54:34.261Z,13.41
2019-05-09T16:57:02.774Z,13.25
2019-05-09T16:59:31.311Z,13.12
2019-05-09T17:01:59.892Z,13.27
2019-05-09T17:04:28.388Z,13.13
2019-05-09T17:06:57.718Z,13.18
2019-05-09T17:09:28.482Z,13.35
2019-05-09T17:11:57.708Z,13.31
2019-05-09T17:14:28.325Z,13.17
2019-05-09T17:16:59.569Z,13.49
2019-05-09T17:19:28.252Z,13.46
2019-05-09T17:22:07.727Z,13.39
2019-05-09T17:24:37.419Z,13.45
2019-05-09T17:27:08.547Z,13.38
2019-05-09T17:29:38.286Z,13.26
2019-05-09T17:32:07.737Z,13.28
2019-05-09T17:34:38.147Z,13.09
2019-05-09T17:37:08.048Z,13.16
2019-05-09T17:39:38.613Z,13.32
2019-05-09T17:42:07.654Z,13.46
2019-05-09T17:44:36.291Z,13.46
2019-05-09T17:47:08.156Z,13.36
2019-05-09T17:49:37.508Z,13.39
2019-05-09T17:52:07.607Z,13.21
2019-05-09T17:54:37.921Z,13.25
2019-05-09T17:57:08.636Z,13.34
2019-05-09T17:59:39.255Z,13.26
2019-05-09T18:02:08.699Z,13.26
2019-05-09T18:04:37.976Z,13.17
2019-05-09T18:07:08.727Z,13.18
2019-05-09T18:09:36.850Z,13.11
2019-05-09T18:12:05.450Z,12.95
2019-05-09T18:14:33.990Z,12.91
2019-05-09T18:17:02.509Z,12.91
2019-05-09T18:19:30.998Z,13.10
2019-05-09T18:21:59.601Z,13.15
2019-05-09T18:24:28.844Z,13.22
2019-05-09T18:26:58.235Z,13.15
2019-05-09T18:29:27.542Z,13.08
2019-05-09T18:32:16.335Z,13.11
2019-05-09T18:34:45.002Z,13.00
2019-05-09T18:37:13.529Z,12.84
2019-05-09T18:39:42.098Z,13.09
2019-05-09T18:42:10.757Z,13.30
2019-05-09T18:44:39.257Z,13.42
2019-05-09T18:47:07.996Z,13.32
2019-05-09T18:49:36.538Z,13.17
2019-05-09T18:52:05.195Z,13.20
2019-05-09T18:54:33.778Z,13.19
2019-05-09T18:57:02.435Z,13.20
2019-05-09T18:59:30.939Z,13.12
2019-05-09T19:01:59.465Z,13.21
2019-05-09T19:04:27.960Z,13.27
2019-05-09T19:06:56.489Z,13.26
2019-05-09T19:09:25.763Z,13.21
2019-05-09T19:11:54.404Z,13.11
2019-05-09T19:14:23.720Z,13.03
2019-05-09T19:17:05.909Z,12.93
2019-05-09T19:19:38.894Z,13.01
2019-05-09T19:22:21.470Z,13.02
2019-05-09T19:24:38.118Z,13.05
2019-05-09T19:27:06.613Z,12.98
2019-05-09T19:29:35.144Z,12.96
2019-05-09T19:32:04.092Z,12.82
2019-05-09T19:34:32.616Z,12.82
2019-05-09T19:37:01.110Z,12.77
2019-05-09T19:39:29.640Z,12.67
2019-05-09T19:41:58.175Z,12.71
2019-05-09T19:44:26.669Z,12.60
2019-05-09T19:46:55.223Z,12.83
2019-05-09T19:49:24.759Z,12.83
2019-05-09T19:51:53.269Z,12.79
2019-05-09T19:54:21.766Z,12.63
2019-05-09T19:56:50.279Z,12.67
2019-05-09T19:59:18.774Z,12.83
2019-05-09T20:01:47.375Z,12.77
2019-05-09T20:04:15.920Z,12.79
2019-05-09T20:06:46.097Z,12.94
2019-05-09T20:09:18.770Z,12.98
2019-05-09T20:11:48.932Z,12.84
2019-05-09T20:14:19.078Z,12.83
2019-05-09T20:16:49.325Z,12.84
2019-05-09T20:19:17.832Z,12.83
2019-05-09T20:21:46.419Z,12.56
2019-05-09T20:24:14.944Z,12.53
2019-05-09T20:26:45.703Z,12.59
2019-05-09T20:29:14.351Z,12.62
2019-05-09T20:31:42.941Z,12.62
2019-05-09T20:34:11.551Z,12.65
2019-05-09T20:36:40.131Z,12.51
2019-05-09T20:39:08.980Z,12.56
2019-05-09T20:41:37.687Z,12.39
2019-05-09T20:44:06.611Z,12.39
2019-05-09T20:46:35.301Z,12.55
2019-05-09T20:49:06.503Z,12.59
2019-05-09T20:51:35.277Z,12.50
2019-05-09T20:54:19.986Z,12.70
2019-05-09T20:56:35.927Z,12.53
2019-05-09T20:59:05.147Z,12.59
2019-05-09T21:01:33.946Z,12.46
2019-05-09T21:04:02.622Z,12.44
2019-05-09T21:06:31.330Z,12.39
2019-05-09T21:09:00.173Z,12.39
2019-05-09T21:11:28.895Z,12.14
2019-05-09T21:13:57.581Z,12.23
2019-05-09T21:16:26.292Z,11.99
2019-05-09T21:18:55.006Z,12.06
2019-05-09T21:21:23.694Z,12.14
2019-05-09T21:23:52.405Z,12.29
2019-05-09T21:26:21.083Z,12.06
2019-05-09T21:28:49.794Z,12.06
2019-05-09T21:31:18.524Z,12.09
2019-05-09T21:33:47.199Z,12.10
2019-05-09T21:36:15.744Z,12.10
2019-05-09T21:38:44.243Z,12.10
2019-05-09T21:41:12.764Z,12.16
2019-05-09T21:43:41.262Z,11.89
2019-05-09T21:46:09.774Z,11.91
2019-05-09T21:48:38.760Z,11.76
2019-05-09T21:51:07.529Z,11.61
2019-05-09T21:53:40.965Z,11.46
2019-05-09T21:56:06.239Z,11.38
2019-05-09T21:58:34.734Z,11.29
2019-05-09T22:01:04.569Z,11.02
2019-05-09T22:03:33.135Z,11.25
2019-05-09T22:06:01.701Z,11.61
2019-05-09T22:08:30.209Z,11.28
2019-05-09T22:10:58.689Z,11.19
2019-05-09T22:13:27.202Z,11.16
2019-05-09T22:15:55.702Z,11.27
2019-05-09T22:18:24.214Z,11.41
2019-05-09T22:20:52.706Z,11.12
2019-05-09T22:23:21.243Z,11.31
2019-05-09T22:25:49.729Z,11.35
2019-05-09T22:28:18.284Z,11.05
2019-05-09T22:30:46.779Z,11.08
2019-05-09T22:33:15.267Z,11.00
2019-05-09T22:35:43.850Z,11.08
2019-05-09T22:38:12.337Z,10.92
2019-05-09T22:40:40.855Z,10.64
2019-05-09T22:43:09.412Z,10.93
2019-05-09T22:45:38.127Z,11.01
2019-05-09T22:48:06.611Z,10.74
2019-05-09T22:50:35.097Z,11.04
2019-05-09T22:53:04.673Z,11.01
2019-05-09T22:55:33.165Z,10.83
2019-05-09T22:58:01.655Z,10.85
2019-05-09T23:00:30.280Z,10.95
2019-05-09T23:02:58.768Z,10.93
2019-05-09T23:05:27.432Z,10.78
2019-05-09T23:07:56.017Z,11.01
2019-05-09T23:10:24.532Z,11.01
2019-05-09T23:12:53.019Z,11.16
2019-05-09T23:15:21.521Z,10.88
2019-05-09T23:17:50.044Z,11.12
2019-05-09T23:20:20.270Z,10.96
2019-05-09T23:22:48.944Z,10.85
2019-05-09T23:25:17.445Z,10.77
2019-05-09T23:27:45.964Z,10.67
2019-05-09T23:30:15.252Z,10.77
2019-05-09T23:32:45.538Z,10.49
2019-05-09T23:35:14.163Z,10.70
2019-05-09T23:37:42.681Z,11.02
2019-05-09T23:40:11.605Z,10.98
2019-05-09T23:42:40.129Z,11.19
2019-05-09T23:45:09.110Z,11.09
2019-05-09T23:47:37.626Z,11.03
2019-05-09T23:50:06.950Z,10.85
2019-05-09T23:52:35.433Z,10.78
2019-05-09T23:55:21.954Z,11.01
2019-05-09T23:58:08.174Z,10.83
